createdAt,value
2022-11-22T00:00:56.939Z,0.90
2022-11-22T00:03:58.733Z,1.23
2022-11-22T00:07:01.162Z,0.30
2022-11-22T00:10:05.899Z,0.67
2022-11-22T00:13:08.419Z,0.67
2022-11-22T00:16:10.919Z,0.30
2022-11-22T00:19:13.140Z,0.23
2022-11-22T00:22:15.124Z,1.00
2022-11-22T00:25:17.692Z,0.33
2022-11-22T00:28:19.564Z,0.47
2022-11-22T00:31:22.074Z,0.30
2022-11-22T00:34:23.939Z,0.20
2022-11-22T00:37:25.822Z,0.30
2022-11-22T00:40:27.688Z,0.40
2022-11-22T00:43:29.597Z,0.70
2022-11-22T00:46:31.459Z,0.43
2022-11-22T00:49:33.361Z,0.67
2022-11-22T00:52:35.583Z,0.53
2022-11-22T00:55:37.867Z,0.40
2022-11-22T00:58:39.934Z,2.13
2022-11-22T01:01:41.965Z,0.73
2022-11-22T01:08:03.029Z,0.30
2022-11-22T01:11:08.916Z,0.83
2022-11-22T01:14:11.033Z,0.30
2022-11-22T01:17:20.799Z,0.33
2022-11-22T01:20:23.343Z,0.30
2022-11-22T01:23:25.321Z,0.67
2022-11-22T01:26:27.386Z,1.43
2022-11-22T01:33:27.176Z,0.30
2022-11-22T01:36:29.653Z,0.30
2022-11-22T01:39:32.090Z,0.40
2022-11-22T01:42:51.044Z,1.37
2022-11-22T01:45:55.798Z,0.43
2022-11-22T01:49:03.799Z,0.53
2022-11-22T01:52:24.558Z,3.70
2022-11-22T01:55:26.983Z,1.10
2022-11-22T01:58:32.464Z,0.20
2022-11-22T02:01:35.229Z,0.30
2022-11-22T02:08:22.629Z,0.47
2022-11-22T02:14:45.433Z,0.50
2022-11-22T02:17:54.093Z,0.83
2022-11-22T02:20:56.346Z,0.40
2022-11-22T02:24:30.912Z,0.33
2022-11-22T02:27:33.014Z,0.53
2022-11-22T02:30:36.829Z,1.23
2022-11-22T02:33:38.714Z,0.87
2022-11-22T02:36:47.179Z,0.53
2022-11-22T02:39:52.840Z,0.60
2022-11-22T02:43:07.385Z,1.03
2022-11-22T02:46:16.078Z,1.10
2022-11-22T02:49:28.720Z,0.43
2022-11-22T02:52:35.654Z,0.50
2022-11-22T02:55:38.384Z,0.50
2022-11-22T02:58:40.318Z,0.47
2022-11-22T03:01:42.942Z,1.00
2022-11-22T03:04:44.823Z,0.53
2022-11-22T03:07:46.769Z,0.63
2022-11-22T03:10:50.924Z,0.67
2022-11-22T03:13:53.643Z,0.23
2022-11-22T03:16:55.469Z,0.90
2022-11-22T03:19:57.329Z,0.80
2022-11-22T03:23:01.179Z,7.43
2022-11-22T03:26:11.969Z,1.43
2022-11-22T03:29:13.913Z,0.63
2022-11-22T03:32:15.925Z,2.20
2022-11-22T03:35:17.825Z,0.43
2022-11-22T03:38:19.739Z,2.10
2022-11-22T03:41:21.615Z,0.93
2022-11-22T03:44:24.129Z,2.20
2022-11-22T03:47:25.940Z,0.50
2022-11-22T03:50:27.850Z,0.77
2022-11-22T03:53:29.609Z,1.73
2022-11-22T03:56:31.547Z,0.70
2022-11-22T03:59:33.333Z,0.83
2022-11-22T04:02:35.204Z,0.60
2022-11-22T04:05:37.050Z,2.67
2022-11-22T04:08:39.105Z,0.40
2022-11-22T04:11:40.878Z,0.60
2022-11-22T04:15:01.797Z,1.37
2022-11-22T04:18:03.756Z,0.70
2022-11-22T04:21:24.724Z,0.73
2022-11-22T04:24:45.029Z,0.70
2022-11-22T04:27:47.080Z,2.73
2022-11-22T04:31:08.183Z,2.50
2022-11-22T04:34:10.041Z,0.63
2022-11-22T04:37:11.967Z,0.43
2022-11-22T04:40:13.882Z,0.30
2022-11-22T04:43:45.838Z,0.60
2022-11-22T04:46:47.773Z,0.73
2022-11-22T04:49:49.575Z,0.50
2022-11-22T04:52:54.778Z,2.00
2022-11-22T04:55:57.121Z,0.40
2022-11-22T04:58:59.417Z,1.00
2022-11-22T05:02:01.271Z,0.53
2022-11-22T05:05:03.183Z,3.57
2022-11-22T05:08:06.522Z,0.87
2022-11-22T05:11:08.625Z,0.70
2022-11-22T05:14:10.988Z,1.73
2022-11-22T05:17:13.622Z,6.03
2022-11-22T05:20:15.820Z,0.60
2022-11-22T05:23:36.730Z,0.30
2022-11-22T05:26:38.575Z,0.70
2022-11-22T05:29:40.468Z,1.07
2022-11-22T05:32:42.344Z,1.83
2022-11-22T05:35:45.088Z,0.50
2022-11-22T05:38:48.458Z,2.27
2022-11-22T05:41:57.070Z,0.47
2022-11-22T05:44:58.863Z,0.70
2022-11-22T05:48:01.059Z,2.03
2022-11-22T05:51:11.171Z,0.93
2022-11-22T05:54:13.091Z,2.10
2022-11-22T05:57:14.954Z,0.67
2022-11-22T06:00:17.833Z,0.60
2022-11-22T06:03:19.680Z,1.30
2022-11-22T06:06:22.791Z,0.50
2022-11-22T06:09:25.119Z,2.23
2022-11-22T06:12:27.942Z,0.70
2022-11-22T06:15:30.562Z,1.10
2022-11-22T06:18:32.794Z,0.97
2022-11-22T06:21:34.569Z,1.17
2022-11-22T06:24:36.540Z,1.70
2022-11-22T06:27:38.496Z,1.13
2022-11-22T06:30:40.365Z,1.67
2022-11-22T06:33:43.097Z,2.13
2022-11-22T06:36:45.439Z,2.00
2022-11-22T06:39:47.199Z,0.77
2022-11-22T06:42:49.014Z,0.97
2022-11-22T06:45:56.918Z,0.93
2022-11-22T06:49:05.807Z,1.63
2022-11-22T06:52:10.385Z,0.53
2022-11-22T06:55:42.493Z,1.53
2022-11-22T06:58:38.948Z,1.90
2022-11-22T07:01:50.585Z,1.60
2022-11-22T07:05:24.412Z,1.33
2022-11-22T07:08:57.736Z,6.77
2022-11-22T07:12:04.984Z,1.33
2022-11-22T07:15:17.392Z,2.17
2022-11-22T07:18:25.883Z,1.37
2022-11-22T07:21:34.787Z,1.77
2022-11-22T07:24:38.784Z,1.83
2022-11-22T07:27:42.344Z,1.87
2022-11-22T07:30:44.965Z,1.43
2022-11-22T07:33:47.576Z,1.37
2022-11-22T07:36:53.114Z,0.97
2022-11-22T07:39:58.044Z,3.13
2022-11-22T07:42:59.898Z,1.77
2022-11-22T07:46:04.108Z,1.63
2022-11-22T07:49:06.037Z,1.77
2022-11-22T07:52:07.984Z,1.07
2022-11-22T07:55:14.084Z,1.27
2022-11-22T07:58:16.418Z,2.50
2022-11-22T08:01:19.696Z,2.53
2022-11-22T08:04:21.589Z,6.10
2022-11-22T08:07:23.519Z,2.60
2022-11-22T08:10:25.478Z,1.20
2022-11-22T08:13:27.517Z,3.67
2022-11-22T08:16:30.938Z,1.30
2022-11-22T08:19:33.747Z,2.57
2022-11-22T08:22:41.042Z,1.10
2022-11-22T08:25:42.958Z,2.20
2022-11-22T08:28:45.417Z,1.80
2022-11-22T08:31:47.288Z,3.40
2022-11-22T08:34:49.925Z,2.60
2022-11-22T08:37:55.985Z,1.20
2022-11-22T08:40:58.337Z,1.93
2022-11-22T08:44:00.192Z,2.73
2022-11-22T08:47:02.663Z,0.87
2022-11-22T08:50:04.985Z,4.97
2022-11-22T08:53:07.054Z,4.93
2022-11-22T08:56:12.607Z,2.83
2022-11-22T08:59:15.540Z,4.23
2022-11-22T09:02:17.447Z,4.50
2022-11-22T09:05:19.337Z,5.40
2022-11-22T09:11:22.984Z,5.40
2022-11-22T09:14:24.720Z,5.47
2022-11-22T09:17:26.606Z,5.07
2022-11-22T09:20:28.572Z,4.20
2022-11-22T09:23:30.647Z,4.87
2022-11-22T09:26:33.185Z,4.83
2022-11-22T09:29:35.612Z,3.70
2022-11-22T09:32:37.874Z,6.00
2022-11-22T09:35:39.750Z,5.83
2022-11-22T09:38:41.677Z,3.27
2022-11-22T09:41:53.030Z,3.40
2022-11-22T09:45:22.700Z,4.27
2022-11-22T09:48:38.325Z,3.30
2022-11-22T09:51:44.118Z,3.70
2022-11-22T09:54:57.482Z,2.97
2022-11-22T09:58:33.467Z,4.03
2022-11-22T10:01:41.228Z,4.53
2022-11-22T10:05:03.083Z,7.63
2022-11-22T10:08:35.928Z,8.93
2022-11-22T10:12:05.690Z,5.33
2022-11-22T10:15:27.189Z,6.33
2022-11-22T10:18:34.820Z,8.73
2022-11-22T10:21:36.777Z,6.40
2022-11-22T10:24:38.585Z,4.63
2022-11-22T10:27:40.980Z,7.47
2022-11-22T10:31:07.475Z,5.70
2022-11-22T10:34:32.865Z,4.27
2022-11-22T10:38:05.247Z,4.10
2022-11-22T10:41:28.515Z,3.80
2022-11-22T10:44:48.625Z,4.30
2022-11-22T10:48:18.610Z,4.70
2022-11-22T10:51:29.151Z,5.23
2022-11-22T10:54:50.593Z,5.33
2022-11-22T10:58:00.425Z,3.50
2022-11-22T11:01:25.714Z,6.20
2022-11-22T11:04:34.046Z,3.53
2022-11-22T11:07:46.695Z,6.87
2022-11-22T11:10:48.616Z,4.43
2022-11-22T11:13:54.641Z,2.17
2022-11-22T11:16:57.039Z,2.83
2022-11-22T11:20:02.936Z,3.60
2022-11-22T11:23:20.471Z,4.30
2022-11-22T11:26:22.396Z,4.90
2022-11-22T11:29:24.199Z,5.63
2022-11-22T11:32:26.173Z,4.07
2022-11-22T11:35:29.351Z,3.50
2022-11-22T11:38:43.576Z,2.90
2022-11-22T11:41:45.946Z,3.50
2022-11-22T11:44:48.121Z,3.90
2022-11-22T11:47:50.013Z,2.10
2022-11-22T11:50:51.969Z,2.00
2022-11-22T11:53:58.246Z,3.27
2022-11-22T11:57:01.516Z,2.93
2022-11-22T12:00:11.530Z,1.20
2022-11-22T12:03:16.565Z,1.53
2022-11-22T12:06:18.766Z,2.80
2022-11-22T12:09:36.938Z,3.50
2022-11-22T12:12:49.726Z,2.00
2022-11-22T12:15:59.189Z,3.93
2022-11-22T12:19:35.161Z,3.03
2022-11-22T12:22:51.971Z,2.13
2022-11-22T12:25:55.489Z,6.13
2022-11-22T12:28:58.635Z,5.00
2022-11-22T12:32:34.692Z,2.97
2022-11-22T12:35:44.716Z,1.90
2022-11-22T12:38:48.316Z,2.37
2022-11-22T12:41:54.030Z,3.10
2022-11-22T12:45:15.850Z,4.13
2022-11-22T12:48:33.909Z,3.10
2022-11-22T12:51:52.512Z,2.90
2022-11-22T12:55:00.035Z,2.03
2022-11-22T12:58:07.991Z,2.83
2022-11-22T13:01:16.476Z,1.73
2022-11-22T13:04:47.739Z,1.17
2022-11-22T13:08:15.262Z,1.90
2022-11-22T13:11:20.435Z,3.33
2022-11-22T13:14:28.688Z,1.77
2022-11-22T13:17:35.724Z,3.43
2022-11-22T13:20:43.196Z,2.77
2022-11-22T13:24:07.935Z,1.17
2022-11-22T13:27:18.256Z,2.13
2022-11-22T13:30:25.723Z,0.90
2022-11-22T13:33:27.635Z,1.23
2022-11-22T13:36:29.429Z,2.00
2022-11-22T13:39:31.387Z,2.63
2022-11-22T13:42:33.218Z,2.80
2022-11-22T13:45:54.922Z,2.80
2022-11-22T13:48:56.830Z,2.03
2022-11-22T13:52:00.241Z,3.43
2022-11-22T13:55:37.233Z,3.13
2022-11-22T13:59:12.859Z,3.00
2022-11-22T14:02:24.305Z,1.40
2022-11-22T14:05:35.339Z,1.90
2022-11-22T14:08:44.309Z,2.97
2022-11-22T14:12:18.936Z,1.57
2022-11-22T14:15:32.782Z,1.27
2022-11-22T14:18:53.206Z,1.40
2022-11-22T14:22:11.011Z,2.03
2022-11-22T14:25:29.525Z,1.23
2022-11-22T14:28:50.220Z,1.23
2022-11-22T14:31:55.891Z,2.67
2022-11-22T14:35:03.626Z,2.43
2022-11-22T14:38:31.973Z,2.70
2022-11-22T14:41:43.165Z,1.43
2022-11-22T14:44:45.861Z,2.27
2022-11-22T14:47:53.807Z,1.30
2022-11-22T14:51:05.773Z,1.23
2022-11-22T14:54:22.835Z,1.33
2022-11-22T14:57:26.726Z,2.60
2022-11-22T15:00:43.897Z,3.40
2022-11-22T15:09:13.692Z,2.17
2022-11-22T15:09:18.604Z,2.43
2022-11-22T15:11:54.715Z,2.00
2022-11-22T16:00:28.044Z,6.97
2022-11-22T16:03:38.449Z,3.80
2022-11-22T16:06:43.320Z,2.97
2022-11-22T16:09:51.426Z,2.83
2022-11-22T16:12:53.642Z,2.87
2022-11-22T16:16:10.629Z,3.60
2022-11-22T16:19:22.725Z,1.90
2022-11-22T16:22:32.492Z,3.23
2022-11-22T16:25:36.605Z,3.80
2022-11-22T16:28:38.580Z,3.00
2022-11-22T16:31:41.011Z,4.23
2022-11-22T16:34:43.558Z,3.83
2022-11-22T16:37:48.304Z,6.37
2022-11-22T16:40:51.209Z,7.93
2022-11-22T16:43:57.667Z,8.20
2022-11-22T16:47:01.104Z,6.20
2022-11-22T16:50:03.014Z,8.50
2022-11-22T16:53:10.392Z,6.57
2022-11-22T16:56:21.924Z,6.70
2022-11-22T16:59:23.719Z,3.13
2022-11-22T17:02:26.887Z,2.87
2022-11-22T17:05:28.814Z,3.73
2022-11-22T17:08:30.711Z,2.50
2022-11-22T17:11:32.871Z,7.73
2022-11-22T17:14:35.071Z,3.23
2022-11-22T17:17:36.963Z,2.77
2022-11-22T17:20:38.984Z,5.30
2022-11-22T17:23:40.805Z,2.57
2022-11-22T17:26:42.819Z,2.33
2022-11-22T17:29:51.681Z,6.33
2022-11-22T17:32:53.619Z,7.30
2022-11-22T17:35:55.920Z,3.40
2022-11-22T17:38:58.917Z,3.40
2022-11-22T17:42:00.711Z,2.80
2022-11-22T17:45:04.016Z,4.07
2022-11-22T17:48:06.205Z,6.80
2022-11-22T17:51:10.189Z,5.43
2022-11-22T17:54:12.085Z,5.27
2022-11-22T17:57:13.976Z,4.37
2022-11-22T18:00:16.302Z,3.10
2022-11-22T18:03:18.258Z,3.77
2022-11-22T18:06:23.655Z,4.97
2022-11-22T18:09:25.519Z,3.33
2022-11-22T18:12:27.530Z,3.60
2022-11-22T18:15:29.647Z,4.30
2022-11-22T18:18:55.753Z,4.03
2022-11-22T18:21:55.458Z,3.67
2022-11-22T18:24:57.329Z,4.80
2022-11-22T18:27:59.747Z,10.27
2022-11-22T18:31:01.609Z,7.63
2022-11-22T18:34:03.533Z,9.70
2022-11-22T18:37:05.480Z,8.57
2022-11-22T18:40:08.885Z,7.13
2022-11-22T18:43:10.682Z,5.13
2022-11-22T18:46:12.570Z,7.17
2022-11-22T18:49:21.386Z,4.90
2022-11-22T18:52:29.541Z,5.33
2022-11-22T18:55:33.290Z,3.47
2022-11-22T18:58:35.247Z,1.10
2022-11-22T19:01:37.299Z,1.27
2022-11-22T19:04:39.685Z,4.47
2022-11-22T19:07:41.712Z,1.87
2022-11-22T19:10:44.191Z,1.87
2022-11-22T19:13:46.141Z,2.10
2022-11-22T19:16:48.051Z,1.77
2022-11-22T19:19:53.745Z,2.03
2022-11-22T19:22:55.604Z,4.10
2022-11-22T19:25:57.981Z,4.90
2022-11-22T19:29:00.521Z,4.50
2022-11-22T19:32:02.530Z,2.47
2022-11-22T19:35:05.107Z,2.23
2022-11-22T19:38:06.925Z,4.33
2022-11-22T19:44:32.944Z,2.40
2022-11-22T19:47:34.825Z,3.23
2022-11-22T19:50:40.034Z,3.67
2022-11-22T19:53:44.709Z,3.83
2022-11-22T19:56:46.516Z,3.57
2022-11-22T19:59:48.386Z,3.70
2022-11-22T20:02:50.359Z,3.90
2022-11-22T20:05:52.204Z,4.33
2022-11-22T20:09:04.280Z,2.70
2022-11-22T20:12:06.160Z,3.30
2022-11-22T20:15:08.186Z,5.60
2022-11-22T20:18:10.813Z,4.10
2022-11-22T20:21:14.528Z,5.17
2022-11-22T20:24:17.784Z,4.73
2022-11-22T20:27:24.504Z,5.53
2022-11-22T20:30:26.855Z,5.00
2022-11-22T20:33:28.666Z,9.63
2022-11-22T20:36:32.356Z,4.73
2022-11-22T20:39:36.676Z,6.30
2022-11-22T20:42:38.515Z,5.47
2022-11-22T20:45:40.292Z,7.10
2022-11-22T20:48:44.636Z,4.17
2022-11-22T20:55:28.022Z,4.00
2022-11-22T20:58:29.935Z,3.83
2022-11-22T21:01:32.136Z,3.83
2022-11-22T21:04:34.140Z,3.87
2022-11-22T21:07:36.538Z,3.37
2022-11-22T21:10:38.630Z,4.43
2022-11-22T21:13:41.478Z,3.80
2022-11-22T21:16:43.312Z,3.93
2022-11-22T21:19:45.179Z,4.37
2022-11-22T21:22:46.970Z,4.50
2022-11-22T21:25:50.801Z,4.67
2022-11-22T21:28:53.028Z,8.13
2022-11-22T21:31:55.102Z,5.83
2022-11-22T21:34:56.966Z,5.33
2022-11-22T21:37:58.865Z,5.20
2022-11-22T21:41:31.798Z,5.17
2022-11-22T21:44:24.869Z,6.17
2022-11-22T21:47:26.718Z,3.53
2022-11-22T21:50:31.881Z,4.53
2022-11-22T21:53:34.023Z,4.03
2022-11-22T21:56:36.336Z,4.23
2022-11-22T21:59:38.287Z,3.17
2022-11-22T22:02:40.403Z,3.07
2022-11-22T22:05:48.138Z,2.93
2022-11-22T22:08:50.477Z,2.33
2022-11-22T22:11:52.304Z,4.13
2022-11-22T22:14:54.211Z,2.53
2022-11-22T22:17:56.035Z,2.53
2022-11-22T22:21:06.151Z,3.27
2022-11-22T22:24:11.784Z,3.27
2022-11-22T22:27:13.651Z,2.53
2022-11-22T22:30:17.024Z,3.50
2022-11-22T22:33:18.858Z,2.63
2022-11-22T22:36:21.744Z,1.83
2022-11-22T22:39:23.515Z,1.60
2022-11-22T22:42:25.809Z,2.53
2022-11-22T22:45:27.611Z,1.53
2022-11-22T22:48:30.090Z,2.10
2022-11-22T22:51:33.447Z,5.83
2022-11-22T22:54:36.282Z,3.17
2022-11-22T22:57:38.130Z,2.73
2022-11-22T23:00:40.053Z,2.37
2022-11-22T23:03:41.911Z,2.77
2022-11-22T23:06:45.011Z,2.53
2022-11-22T23:09:46.987Z,3.10
2022-11-22T23:12:48.870Z,3.30
2022-11-22T23:15:58.389Z,3.03
2022-11-22T23:19:00.729Z,2.40
2022-11-22T23:22:04.115Z,4.07
2022-11-22T23:25:09.916Z,2.57
2022-11-22T23:28:11.730Z,3.90
2022-11-22T23:31:15.109Z,3.37
2022-11-22T23:34:16.932Z,2.33
2022-11-22T23:37:19.061Z,4.03
2022-11-22T23:40:23.351Z,2.63
2022-11-22T23:43:25.194Z,3.40
2022-11-22T23:46:30.430Z,3.17
2022-11-22T23:49:32.938Z,2.90
2022-11-22T23:52:35.015Z,1.07
2022-11-22T23:55:36.888Z,1.60
2022-11-22T23:58:38.736Z,1.10
